sensor_id;sensor_type;location;lat;lon;timestamp;P1;durP1;ratioP1;P2;durP2;ratioP2
12950;SDS011;6540;50.858;7.232;2023-05-10T00:02:18;6.27;;;5.13;;
12950;SDS011;6540;50.858;7.232;2023-05-10T00:04:43;7.63;;;4.57;;
12950;SDS011;6540;50.858;7.232;2023-05-10T00:07:08;6.87;;;5.83;;
12950;SDS011;6540;50.858;7.232;2023-05-10T00:09:35;7.70;;;6.43;;
12950;SDS011;6540;50.858;7.232;2023-05-10T00:12:00;8.23;;;6.17;;
12950;SDS011;6540;50.858;7.232;2023-05-10T00:14:25;9.60;;;6.83;;
12950;SDS011;6540;50.858;7.232;2023-05-10T00:16:51;6.20;;;5.53;;
12950;SDS011;6540;50.858;7.232;2023-05-10T00:19:16;6.97;;;5.50;;
12950;SDS011;6540;50.858;7.232;2023-05-10T00:21:42;7.67;;;5.57;;
12950;SDS011;6540;50.858;7.232;2023-05-10T00:24:07;7.80;;;5.70;;
12950;SDS011;6540;50.858;7.232;2023-05-10T00:26:32;10.43;;;6.63;;
12950;SDS011;6540;50.858;7.232;2023-05-10T00:28:58;9.83;;;6.40;;
12950;SDS011;6540;50.858;7.232;2023-05-10T00:31:23;8.07;;;6.53;;
12950;SDS011;6540;50.858;7.232;2023-05-10T00:33:48;10.67;;;6.87;;
12950;SDS011;6540;50.858;7.232;2023-05-10T00:36:14;11.23;;;6.37;;
12950;SDS011;6540;50.858;7.232;2023-05-10T00:38:39;7.30;;;5.67;;
12950;SDS011;6540;50.858;7.232;2023-05-10T00:41:05;7.77;;;5.83;;
12950;SDS011;6540;50.858;7.232;2023-05-10T00:43:31;8.80;;;6.00;;
12950;SDS011;6540;50.858;7.232;2023-05-10T00:45:56;10.10;;;6.30;;
12950;SDS011;6540;50.858;7.232;2023-05-10T00:48:22;7.07;;;5.87;;
12950;SDS011;6540;50.858;7.232;2023-05-10T00:50:48;9.43;;;6.37;;
12950;SDS011;6540;50.858;7.232;2023-05-10T00:53:14;9.17;;;6.13;;
12950;SDS011;6540;50.858;7.232;2023-05-10T00:55:39;7.63;;;5.67;;
12950;SDS011;6540;50.858;7.232;2023-05-10T00:58:05;8.67;;;5.90;;
12950;SDS011;6540;50.858;7.232;2023-05-10T01:00:31;8.33;;;6.50;;
12950;SDS011;6540;50.858;7.232;2023-05-10T01:02:58;7.63;;;5.83;;
12950;SDS011;6540;50.858;7.232;2023-05-10T01:05:23;7.23;;;5.43;;
12950;SDS011;6540;50.858;7.232;2023-05-10T01:07:49;9.17;;;6.00;;
12950;SDS011;6540;50.858;7.232;2023-05-10T01:10:15;8.10;;;5.80;;
12950;SDS011;6540;50.858;7.232;2023-05-10T01:12:41;6.90;;;4.90;;
12950;SDS011;6540;50.858;7.232;2023-05-10T01:15:08;8.37;;;5.70;;
12950;SDS011;6540;50.858;7.232;2023-05-10T01:17:36;9.40;;;6.00;;
12950;SDS011;6540;50.858;7.232;2023-05-10T01:20:04;7.30;;;5.37;;
12950;SDS011;6540;50.858;7.232;2023-05-10T01:34:08;10.30;;;6.17;;
12950;SDS011;6540;50.858;7.232;2023-05-10T01:36:32;7.47;;;5.50;;
12950;SDS011;6540;50.858;7.232;2023-05-10T01:39:07;7.77;;;5.53;;
12950;SDS011;6540;50.858;7.232;2023-05-10T01:47:07;7.97;;;5.87;;
12950;SDS011;6540;50.858;7.232;2023-05-10T01:50:00;7.77;;;5.27;;
12950;SDS011;6540;50.858;7.232;2023-05-10T01:52:32;9.33;;;5.67;;
12950;SDS011;6540;50.858;7.232;2023-05-10T01:55:04;8.03;;;5.30;;
12950;SDS011;6540;50.858;7.232;2023-05-10T01:57:33;7.40;;;5.00;;
12950;SDS011;6540;50.858;7.232;2023-05-10T02:00:04;6.93;;;5.23;;
12950;SDS011;6540;50.858;7.232;2023-05-10T02:02:33;6.53;;;5.00;;
12950;SDS011;6540;50.858;7.232;2023-05-10T02:05:02;8.60;;;5.60;;
12950;SDS011;6540;50.858;7.232;2023-05-10T02:07:30;7.00;;;4.53;;
12950;SDS011;6540;50.858;7.232;2023-05-10T02:09:58;5.80;;;4.70;;
12950;SDS011;6540;50.858;7.232;2023-05-10T02:12:25;6.10;;;4.63;;
12950;SDS011;6540;50.858;7.232;2023-05-10T02:14:52;6.10;;;3.93;;
12950;SDS011;6540;50.858;7.232;2023-05-10T02:17:19;6.77;;;4.80;;
12950;SDS011;6540;50.858;7.232;2023-05-10T02:19:46;6.43;;;4.33;;
12950;SDS011;6540;50.858;7.232;2023-05-10T02:22:12;4.37;;;3.57;;
12950;SDS011;6540;50.858;7.232;2023-05-10T02:24:41;4.37;;;3.77;;
12950;SDS011;6540;50.858;7.232;2023-05-10T02:27:07;4.87;;;3.73;;
12950;SDS011;6540;50.858;7.232;2023-05-10T02:29:33;4.43;;;3.03;;
12950;SDS011;6540;50.858;7.232;2023-05-10T02:32:00;5.30;;;3.97;;
12950;SDS011;6540;50.858;7.232;2023-05-10T02:34:27;5.73;;;4.00;;
12950;SDS011;6540;50.858;7.232;2023-05-10T02:36:53;4.53;;;3.60;;
12950;SDS011;6540;50.858;7.232;2023-05-10T02:39:21;5.57;;;3.43;;
12950;SDS011;6540;50.858;7.232;2023-05-10T02:41:48;7.30;;;3.47;;
12950;SDS011;6540;50.858;7.232;2023-05-10T02:44:16;5.07;;;4.00;;
12950;SDS011;6540;50.858;7.232;2023-05-10T02:46:43;4.33;;;3.63;;
12950;SDS011;6540;50.858;7.232;2023-05-10T02:49:09;4.93;;;4.10;;
12950;SDS011;6540;50.858;7.232;2023-05-10T02:51:35;4.80;;;3.90;;
12950;SDS011;6540;50.858;7.232;2023-05-10T02:54:10;4.23;;;3.47;;
12950;SDS011;6540;50.858;7.232;2023-05-10T02:56:42;3.57;;;3.10;;
12950;SDS011;6540;50.858;7.232;2023-05-10T02:59:11;4.17;;;2.73;;
12950;SDS011;6540;50.858;7.232;2023-05-10T03:01:37;3.63;;;3.27;;
12950;SDS011;6540;50.858;7.232;2023-05-10T03:04:02;4.00;;;3.40;;
12950;SDS011;6540;50.858;7.232;2023-05-10T03:06:28;4.67;;;3.67;;
12950;SDS011;6540;50.858;7.232;2023-05-10T03:08:53;3.13;;;2.83;;
12950;SDS011;6540;50.858;7.232;2023-05-10T03:17:39;4.37;;;3.50;;
12950;SDS011;6540;50.858;7.232;2023-05-10T03:20:04;4.07;;;3.40;;
12950;SDS011;6540;50.858;7.232;2023-05-10T03:22:37;4.67;;;3.43;;
12950;SDS011;6540;50.858;7.232;2023-05-10T03:25:06;4.00;;;3.47;;
12950;SDS011;6540;50.858;7.232;2023-05-10T03:27:34;3.77;;;3.20;;
12950;SDS011;6540;50.858;7.232;2023-05-10T03:30:01;3.80;;;3.07;;
12950;SDS011;6540;50.858;7.232;2023-05-10T03:32:28;4.77;;;3.23;;
12950;SDS011;6540;50.858;7.232;2023-05-10T03:34:55;3.40;;;2.93;;
12950;SDS011;6540;50.858;7.232;2023-05-10T03:37:20;3.50;;;3.20;;
12950;SDS011;6540;50.858;7.232;2023-05-10T03:39:45;3.90;;;2.90;;
12950;SDS011;6540;50.858;7.232;2023-05-10T03:42:11;3.20;;;2.90;;
12950;SDS011;6540;50.858;7.232;2023-05-10T03:44:37;3.10;;;2.50;;
12950;SDS011;6540;50.858;7.232;2023-05-10T03:47:03;5.13;;;3.30;;
12950;SDS011;6540;50.858;7.232;2023-05-10T03:49:29;3.77;;;3.27;;
12950;SDS011;6540;50.858;7.232;2023-05-10T03:51:54;3.77;;;3.37;;
12950;SDS011;6540;50.858;7.232;2023-05-10T03:54:20;4.40;;;3.40;;
12950;SDS011;6540;50.858;7.232;2023-05-10T03:56:45;3.90;;;3.53;;
12950;SDS011;6540;50.858;7.232;2023-05-10T03:59:12;5.77;;;4.03;;
12950;SDS011;6540;50.858;7.232;2023-05-10T04:01:38;4.30;;;3.50;;
12950;SDS011;6540;50.858;7.232;2023-05-10T04:04:03;4.77;;;3.40;;
12950;SDS011;6540;50.858;7.232;2023-05-10T04:06:29;4.63;;;3.83;;
12950;SDS011;6540;50.858;7.232;2023-05-10T04:08:54;4.63;;;3.60;;
12950;SDS011;6540;50.858;7.232;2023-05-10T04:11:20;4.50;;;3.53;;
12950;SDS011;6540;50.858;7.232;2023-05-10T04:13:46;5.27;;;4.00;;
12950;SDS011;6540;50.858;7.232;2023-05-10T04:16:12;6.13;;;3.73;;
12950;SDS011;6540;50.858;7.232;2023-05-10T04:18:37;5.17;;;4.17;;
12950;SDS011;6540;50.858;7.232;2023-05-10T04:21:03;6.80;;;4.00;;
12950;SDS011;6540;50.858;7.232;2023-05-10T04:23:28;8.20;;;4.30;;
12950;SDS011;6540;50.858;7.232;2023-05-10T04:25:58;5.93;;;4.40;;
12950;SDS011;6540;50.858;7.232;2023-05-10T04:28:25;4.17;;;3.67;;
12950;SDS011;6540;50.858;7.232;2023-05-10T04:30:50;6.47;;;4.33;;
12950;SDS011;6540;50.858;7.232;2023-05-10T04:33:16;4.97;;;4.47;;
12950;SDS011;6540;50.858;7.232;2023-05-10T04:35:41;5.97;;;4.17;;
12950;SDS011;6540;50.858;7.232;2023-05-10T04:38:07;6.10;;;4.40;;
12950;SDS011;6540;50.858;7.232;2023-05-10T04:40:32;5.87;;;4.43;;
12950;SDS011;6540;50.858;7.232;2023-05-10T04:42:57;5.17;;;4.13;;
12950;SDS011;6540;50.858;7.232;2023-05-10T04:45:24;5.83;;;4.57;;
12950;SDS011;6540;50.858;7.232;2023-05-10T04:47:49;6.00;;;4.43;;
12950;SDS011;6540;50.858;7.232;2023-05-10T04:50:15;5.63;;;4.20;;
12950;SDS011;6540;50.858;7.232;2023-05-10T04:52:40;7.30;;;4.03;;
12950;SDS011;6540;50.858;7.232;2023-05-10T04:55:05;6.43;;;4.67;;
12950;SDS011;6540;50.858;7.232;2023-05-10T04:57:32;5.37;;;4.63;;
12950;SDS011;6540;50.858;7.232;2023-05-10T04:59:58;9.63;;;5.43;;
12950;SDS011;6540;50.858;7.232;2023-05-10T05:02:24;8.87;;;5.00;;
12950;SDS011;6540;50.858;7.232;2023-05-10T05:04:50;6.93;;;4.93;;
12950;SDS011;6540;50.858;7.232;2023-05-10T05:07:15;6.57;;;4.83;;
12950;SDS011;6540;50.858;7.232;2023-05-10T05:09:41;7.87;;;5.70;;
12950;SDS011;6540;50.858;7.232;2023-05-10T05:12:06;11.63;;;5.70;;
12950;SDS011;6540;50.858;7.232;2023-05-10T05:14:32;9.00;;;6.47;;
12950;SDS011;6540;50.858;7.232;2023-05-10T05:16:57;10.60;;;7.03;;
12950;SDS011;6540;50.858;7.232;2023-05-10T05:19:22;14.07;;;7.70;;
12950;SDS011;6540;50.858;7.232;2023-05-10T05:21:48;11.57;;;6.83;;
12950;SDS011;6540;50.858;7.232;2023-05-10T05:24:13;9.37;;;6.47;;
12950;SDS011;6540;50.858;7.232;2023-05-10T05:26:38;11.37;;;7.93;;
12950;SDS011;6540;50.858;7.232;2023-05-10T05:29:04;12.83;;;7.73;;
12950;SDS011;6540;50.858;7.232;2023-05-10T05:31:29;13.13;;;7.57;;
12950;SDS011;6540;50.858;7.232;2023-05-10T05:33:55;14.20;;;8.93;;
12950;SDS011;6540;50.858;7.232;2023-05-10T05:36:20;16.70;;;8.57;;
12950;SDS011;6540;50.858;7.232;2023-05-10T05:38:46;14.73;;;8.73;;
12950;SDS011;6540;50.858;7.232;2023-05-10T05:41:11;13.07;;;7.40;;
12950;SDS011;6540;50.858;7.232;2023-05-10T05:43:37;14.97;;;8.70;;
12950;SDS011;6540;50.858;7.232;2023-05-10T05:46:02;15.23;;;8.80;;
12950;SDS011;6540;50.858;7.232;2023-05-10T05:48:29;11.20;;;8.37;;
12950;SDS011;6540;50.858;7.232;2023-05-10T05:50:55;13.77;;;8.97;;
12950;SDS011;6540;50.858;7.232;2023-05-10T05:53:23;14.50;;;9.43;;
12950;SDS011;6540;50.858;7.232;2023-05-10T05:55:56;14.93;;;9.30;;
12950;SDS011;6540;50.858;7.232;2023-05-10T05:58:23;12.37;;;8.10;;
12950;SDS011;6540;50.858;7.232;2023-05-10T06:00:49;13.33;;;8.93;;
12950;SDS011;6540;50.858;7.232;2023-05-10T06:03:15;17.43;;;9.20;;
12950;SDS011;6540;50.858;7.232;2023-05-10T06:05:41;15.53;;;9.13;;
12950;SDS011;6540;50.858;7.232;2023-05-10T06:08:06;16.37;;;8.63;;
12950;SDS011;6540;50.858;7.232;2023-05-10T06:10:31;13.90;;;9.37;;
12950;SDS011;6540;50.858;7.232;2023-05-10T06:12:57;16.90;;;9.50;;
12950;SDS011;6540;50.858;7.232;2023-05-10T06:15:22;15.50;;;9.67;;
12950;SDS011;6540;50.858;7.232;2023-05-10T06:17:47;16.33;;;9.97;;
12950;SDS011;6540;50.858;7.232;2023-05-10T06:20:14;16.00;;;9.77;;
12950;SDS011;6540;50.858;7.232;2023-05-10T06:22:40;18.33;;;9.13;;
12950;SDS011;6540;50.858;7.232;2023-05-10T06:25:06;14.10;;;9.13;;
12950;SDS011;6540;50.858;7.232;2023-05-10T06:27:32;12.70;;;9.20;;
12950;SDS011;6540;50.858;7.232;2023-05-10T06:29:57;18.20;;;9.40;;
12950;SDS011;6540;50.858;7.232;2023-05-10T06:32:23;12.10;;;9.23;;
12950;SDS011;6540;50.858;7.232;2023-05-10T06:34:48;15.87;;;9.80;;
12950;SDS011;6540;50.858;7.232;2023-05-10T06:37:13;11.33;;;7.97;;
12950;SDS011;6540;50.858;7.232;2023-05-10T06:39:38;13.83;;;9.03;;
12950;SDS011;6540;50.858;7.232;2023-05-10T06:42:04;14.87;;;9.00;;
12950;SDS011;6540;50.858;7.232;2023-05-10T06:44:30;18.90;;;9.40;;
12950;SDS011;6540;50.858;7.232;2023-05-10T06:46:55;13.17;;;8.80;;
12950;SDS011;6540;50.858;7.232;2023-05-10T06:49:21;14.07;;;9.13;;
12950;SDS011;6540;50.858;7.232;2023-05-10T06:51:46;14.47;;;8.47;;
12950;SDS011;6540;50.858;7.232;2023-05-10T06:54:11;13.03;;;8.53;;
12950;SDS011;6540;50.858;7.232;2023-05-10T06:56:37;14.30;;;8.87;;
12950;SDS011;6540;50.858;7.232;2023-05-10T06:59:02;15.13;;;9.23;;
12950;SDS011;6540;50.858;7.232;2023-05-10T07:01:27;13.63;;;9.57;;
12950;SDS011;6540;50.858;7.232;2023-05-10T07:03:53;13.67;;;9.17;;
12950;SDS011;6540;50.858;7.232;2023-05-10T07:06:18;12.93;;;8.33;;
12950;SDS011;6540;50.858;7.232;2023-05-10T07:08:44;14.23;;;8.57;;
12950;SDS011;6540;50.858;7.232;2023-05-10T07:11:09;13.40;;;8.40;;
12950;SDS011;6540;50.858;7.232;2023-05-10T07:13:37;13.13;;;8.43;;
12950;SDS011;6540;50.858;7.232;2023-05-10T07:16:06;13.50;;;8.23;;
12950;SDS011;6540;50.858;7.232;2023-05-10T07:18:32;13.90;;;8.20;;
12950;SDS011;6540;50.858;7.232;2023-05-10T07:20:58;13.77;;;8.03;;
12950;SDS011;6540;50.858;7.232;2023-05-10T07:23:23;12.07;;;7.73;;
12950;SDS011;6540;50.858;7.232;2023-05-10T07:25:48;15.13;;;8.27;;
12950;SDS011;6540;50.858;7.232;2023-05-10T07:28:16;12.27;;;8.37;;
12950;SDS011;6540;50.858;7.232;2023-05-10T07:30:45;14.03;;;9.13;;
12950;SDS011;6540;50.858;7.232;2023-05-10T07:33:11;11.47;;;7.93;;
12950;SDS011;6540;50.858;7.232;2023-05-10T07:35:38;11.60;;;7.90;;
12950;SDS011;6540;50.858;7.232;2023-05-10T07:38:03;11.27;;;8.47;;
12950;SDS011;6540;50.858;7.232;2023-05-10T07:40:29;14.30;;;8.43;;
12950;SDS011;6540;50.858;7.232;2023-05-10T07:42:55;14.13;;;8.20;;
12950;SDS011;6540;50.858;7.232;2023-05-10T07:45:20;12.50;;;8.23;;
12950;SDS011;6540;50.858;7.232;2023-05-10T07:47:46;13.43;;;8.40;;
12950;SDS011;6540;50.858;7.232;2023-05-10T07:50:11;17.43;;;7.23;;
12950;SDS011;6540;50.858;7.232;2023-05-10T07:52:37;12.43;;;7.90;;
12950;SDS011;6540;50.858;7.232;2023-05-10T07:55:02;8.97;;;7.40;;
12950;SDS011;6540;50.858;7.232;2023-05-10T07:57:28;10.07;;;6.97;;
12950;SDS011;6540;50.858;7.232;2023-05-10T07:59:53;12.63;;;7.83;;
12950;SDS011;6540;50.858;7.232;2023-05-10T08:02:18;15.83;;;9.07;;
12950;SDS011;6540;50.858;7.232;2023-05-10T08:04:44;10.00;;;8.23;;
12950;SDS011;6540;50.858;7.232;2023-05-10T08:07:09;12.53;;;8.17;;
12950;SDS011;6540;50.858;7.232;2023-05-10T08:09:35;13.53;;;7.40;;
12950;SDS011;6540;50.858;7.232;2023-05-10T08:12:01;11.07;;;6.67;;
12950;SDS011;6540;50.858;7.232;2023-05-10T08:14:27;13.60;;;7.30;;
12950;SDS011;6540;50.858;7.232;2023-05-10T08:16:53;7.93;;;6.03;;
12950;SDS011;6540;50.858;7.232;2023-05-10T08:19:19;8.07;;;5.37;;
12950;SDS011;6540;50.858;7.232;2023-05-10T08:21:46;6.20;;;4.80;;
12950;SDS011;6540;50.858;7.232;2023-05-10T08:24:11;7.63;;;4.83;;
12950;SDS011;6540;50.858;7.232;2023-05-10T08:26:37;7.23;;;5.00;;
12950;SDS011;6540;50.858;7.232;2023-05-10T08:29:02;8.30;;;4.77;;
12950;SDS011;6540;50.858;7.232;2023-05-10T08:34:49;9.10;;;5.33;;
12950;SDS011;6540;50.858;7.232;2023-05-10T08:37:15;7.27;;;4.90;;
12950;SDS011;6540;50.858;7.232;2023-05-10T08:39:41;8.13;;;4.93;;
12950;SDS011;6540;50.858;7.232;2023-05-10T08:42:06;8.20;;;5.57;;
12950;SDS011;6540;50.858;7.232;2023-05-10T08:44:34;7.00;;;5.20;;
12950;SDS011;6540;50.858;7.232;2023-05-10T08:47:05;7.30;;;4.83;;
12950;SDS011;6540;50.858;7.232;2023-05-10T08:49:32;8.10;;;5.03;;
12950;SDS011;6540;50.858;7.232;2023-05-10T08:51:58;8.47;;;5.47;;
12950;SDS011;6540;50.858;7.232;2023-05-10T08:54:26;8.37;;;4.27;;
12950;SDS011;6540;50.858;7.232;2023-05-10T08:56:52;6.07;;;4.47;;
12950;SDS011;6540;50.858;7.232;2023-05-10T08:59:18;7.40;;;4.63;;
12950;SDS011;6540;50.858;7.232;2023-05-10T09:01:44;8.33;;;4.73;;
12950;SDS011;6540;50.858;7.232;2023-05-10T09:04:11;7.50;;;5.00;;
12950;SDS011;6540;50.858;7.232;2023-05-10T09:06:37;6.73;;;4.83;;
12950;SDS011;6540;50.858;7.232;2023-05-10T09:09:03;7.53;;;4.57;;
12950;SDS011;6540;50.858;7.232;2023-05-10T09:11:28;5.80;;;4.23;;
12950;SDS011;6540;50.858;7.232;2023-05-10T09:13:55;8.00;;;4.30;;
12950;SDS011;6540;50.858;7.232;2023-05-10T09:16:21;7.33;;;4.23;;
12950;SDS011;6540;50.858;7.232;2023-05-10T09:18:47;7.70;;;4.47;;
12950;SDS011;6540;50.858;7.232;2023-05-10T09:21:12;5.07;;;4.50;;
12950;SDS011;6540;50.858;7.232;2023-05-10T09:23:38;6.97;;;4.50;;
12950;SDS011;6540;50.858;7.232;2023-05-10T09:26:08;5.10;;;3.93;;
12950;SDS011;6540;50.858;7.232;2023-05-10T09:28:34;3.73;;;2.50;;
12950;SDS011;6540;50.858;7.232;2023-05-10T09:31:14;3.27;;;2.67;;
12950;SDS011;6540;50.858;7.232;2023-05-10T09:33:44;3.03;;;2.50;;
12950;SDS011;6540;50.858;7.232;2023-05-10T09:36:13;3.50;;;1.97;;
12950;SDS011;6540;50.858;7.232;2023-05-10T09:41:18;1.73;;;1.63;;
12950;SDS011;6540;50.858;7.232;2023-05-10T09:43:45;2.43;;;2.20;;
12950;SDS011;6540;50.858;7.232;2023-05-10T09:46:11;2.50;;;2.20;;
12950;SDS011;6540;50.858;7.232;2023-05-10T09:48:41;4.43;;;2.47;;
12950;SDS011;6540;50.858;7.232;2023-05-10T09:51:07;3.57;;;2.30;;
12950;SDS011;6540;50.858;7.232;2023-05-10T09:53:33;2.60;;;2.40;;
12950;SDS011;6540;50.858;7.232;2023-05-10T09:55:58;2.40;;;2.17;;
12950;SDS011;6540;50.858;7.232;2023-05-10T09:58:23;2.70;;;2.27;;
12950;SDS011;6540;50.858;7.232;2023-05-10T10:00:49;3.50;;;2.10;;
12950;SDS011;6540;50.858;7.232;2023-05-10T10:03:18;2.77;;;2.20;;
12950;SDS011;6540;50.858;7.232;2023-05-10T10:05:46;2.50;;;2.30;;
12950;SDS011;6540;50.858;7.232;2023-05-10T10:08:12;3.10;;;2.50;;
12950;SDS011;6540;50.858;7.232;2023-05-10T10:10:39;5.67;;;2.53;;
12950;SDS011;6540;50.858;7.232;2023-05-10T10:13:10;3.47;;;2.43;;
12950;SDS011;6540;50.858;7.232;2023-05-10T10:15:35;4.03;;;2.40;;
12950;SDS011;6540;50.858;7.232;2023-05-10T10:18:01;6.40;;;3.30;;
12950;SDS011;6540;50.858;7.232;2023-05-10T10:20:28;3.53;;;2.80;;
12950;SDS011;6540;50.858;7.232;2023-05-10T10:22:54;3.53;;;2.67;;
12950;SDS011;6540;50.858;7.232;2023-05-10T10:25:19;6.77;;;3.60;;
12950;SDS011;6540;50.858;7.232;2023-05-10T10:31:02;3.73;;;2.60;;
12950;SDS011;6540;50.858;7.232;2023-05-10T10:36:02;4.57;;;3.13;;
12950;SDS011;6540;50.858;7.232;2023-05-10T10:47:04;8.10;;;4.83;;
12950;SDS011;6540;50.858;7.232;2023-05-10T10:49:47;6.47;;;4.77;;
12950;SDS011;6540;50.858;7.232;2023-05-10T10:54:58;11.20;;;6.37;;
12950;SDS011;6540;50.858;7.232;2023-05-10T10:57:27;8.90;;;6.43;;
12950;SDS011;6540;50.858;7.232;2023-05-10T11:02:44;10.93;;;6.53;;
12950;SDS011;6540;50.858;7.232;2023-05-10T11:10:32;12.27;;;7.77;;
12950;SDS011;6540;50.858;7.232;2023-05-10T11:13:01;15.00;;;7.13;;
12950;SDS011;6540;50.858;7.232;2023-05-10T11:15:39;12.90;;;6.23;;
12950;SDS011;6540;50.858;7.232;2023-05-10T11:18:16;9.70;;;5.87;;
12950;SDS011;6540;50.858;7.232;2023-05-10T11:20:43;9.57;;;5.57;;
12950;SDS011;6540;50.858;7.232;2023-05-10T11:23:12;8.87;;;6.20;;
12950;SDS011;6540;50.858;7.232;2023-05-10T11:25:47;10.27;;;6.80;;
12950;SDS011;6540;50.858;7.232;2023-05-10T11:28:13;8.67;;;5.87;;
12950;SDS011;6540;50.858;7.232;2023-05-10T11:30:39;8.03;;;5.83;;
12950;SDS011;6540;50.858;7.232;2023-05-10T11:33:06;10.07;;;6.23;;
12950;SDS011;6540;50.858;7.232;2023-05-10T11:35:39;6.23;;;4.73;;
12950;SDS011;6540;50.858;7.232;2023-05-10T11:38:09;9.20;;;5.67;;
12950;SDS011;6540;50.858;7.232;2023-05-10T11:40:35;9.37;;;6.07;;
12950;SDS011;6540;50.858;7.232;2023-05-10T11:43:02;8.70;;;5.90;;
12950;SDS011;6540;50.858;7.232;2023-05-10T11:45:28;7.57;;;5.30;;
12950;SDS011;6540;50.858;7.232;2023-05-10T11:47:57;8.93;;;6.03;;
12950;SDS011;6540;50.858;7.232;2023-05-10T11:50:22;9.53;;;5.83;;
12950;SDS011;6540;50.858;7.232;2023-05-10T11:52:51;7.37;;;4.73;;
12950;SDS011;6540;50.858;7.232;2023-05-10T11:55:17;6.07;;;4.60;;
12950;SDS011;6540;50.858;7.232;2023-05-10T11:57:43;4.80;;;3.70;;
12950;SDS011;6540;50.858;7.232;2023-05-10T12:00:10;8.90;;;4.40;;
12950;SDS011;6540;50.858;7.232;2023-05-10T12:02:37;5.13;;;3.43;;
12950;SDS011;6540;50.858;7.232;2023-05-10T12:05:03;4.13;;;3.60;;
12950;SDS011;6540;50.858;7.232;2023-05-10T12:07:31;5.50;;;3.53;;
12950;SDS011;6540;50.858;7.232;2023-05-10T12:10:06;3.87;;;2.93;;
12950;SDS011;6540;50.858;7.232;2023-05-10T12:12:43;4.87;;;3.30;;
12950;SDS011;6540;50.858;7.232;2023-05-10T12:15:10;6.97;;;3.70;;
12950;SDS011;6540;50.858;7.232;2023-05-10T12:17:46;5.07;;;3.47;;
12950;SDS011;6540;50.858;7.232;2023-05-10T12:20:13;4.50;;;3.33;;
12950;SDS011;6540;50.858;7.232;2023-05-10T12:22:44;3.53;;;2.67;;
12950;SDS011;6540;50.858;7.232;2023-05-10T12:25:16;3.47;;;2.60;;
12950;SDS011;6540;50.858;7.232;2023-05-10T12:27:52;4.30;;;2.70;;
12950;SDS011;6540;50.858;7.232;2023-05-10T12:30:24;2.23;;;2.03;;
12950;SDS011;6540;50.858;7.232;2023-05-10T12:32:51;2.70;;;2.20;;
12950;SDS011;6540;50.858;7.232;2023-05-10T12:35:17;3.80;;;2.30;;
12950;SDS011;6540;50.858;7.232;2023-05-10T12:37:46;4.57;;;1.70;;
12950;SDS011;6540;50.858;7.232;2023-05-10T12:40:12;2.40;;;1.77;;
12950;SDS011;6540;50.858;7.232;2023-05-10T12:42:38;2.43;;;1.90;;
12950;SDS011;6540;50.858;7.232;2023-05-10T12:45:05;2.00;;;1.80;;
12950;SDS011;6540;50.858;7.232;2023-05-10T12:47:31;3.07;;;2.10;;
12950;SDS011;6540;50.858;7.232;2023-05-10T12:49:57;6.30;;;2.23;;
12950;SDS011;6540;50.858;7.232;2023-05-10T12:52:26;2.13;;;2.00;;
12950;SDS011;6540;50.858;7.232;2023-05-10T12:54:52;2.43;;;1.90;;
12950;SDS011;6540;50.858;7.232;2023-05-10T12:57:18;1.97;;;1.77;;
12950;SDS011;6540;50.858;7.232;2023-05-10T12:59:43;2.83;;;2.03;;
12950;SDS011;6540;50.858;7.232;2023-05-10T13:02:09;2.73;;;2.10;;
12950;SDS011;6540;50.858;7.232;2023-05-10T13:04:35;2.73;;;1.90;;
12950;SDS011;6540;50.858;7.232;2023-05-10T13:07:02;1.90;;;1.70;;
12950;SDS011;6540;50.858;7.232;2023-05-10T13:09:27;2.50;;;1.80;;
12950;SDS011;6540;50.858;7.232;2023-05-10T13:11:55;2.37;;;2.00;;
12950;SDS011;6540;50.858;7.232;2023-05-10T13:14:21;3.27;;;1.90;;
12950;SDS011;6540;50.858;7.232;2023-05-10T13:16:46;2.77;;;2.03;;
12950;SDS011;6540;50.858;7.232;2023-05-10T13:19:12;2.47;;;1.77;;
12950;SDS011;6540;50.858;7.232;2023-05-10T13:21:38;2.30;;;1.83;;
12950;SDS011;6540;50.858;7.232;2023-05-10T13:24:05;1.80;;;1.70;;
12950;SDS011;6540;50.858;7.232;2023-05-10T13:26:31;2.43;;;2.07;;
12950;SDS011;6540;50.858;7.232;2023-05-10T13:28:56;2.70;;;2.17;;
12950;SDS011;6540;50.858;7.232;2023-05-10T13:31:22;2.90;;;2.27;;
12950;SDS011;6540;50.858;7.232;2023-05-10T13:33:47;1.97;;;1.80;;
12950;SDS011;6540;50.858;7.232;2023-05-10T13:36:13;2.40;;;1.90;;
12950;SDS011;6540;50.858;7.232;2023-05-10T13:38:38;2.80;;;1.93;;
12950;SDS011;6540;50.858;7.232;2023-05-10T13:41:03;2.30;;;2.10;;
12950;SDS011;6540;50.858;7.232;2023-05-10T13:43:29;2.00;;;1.80;;
12950;SDS011;6540;50.858;7.232;2023-05-10T13:45:55;4.23;;;1.83;;
12950;SDS011;6540;50.858;7.232;2023-05-10T13:48:20;2.17;;;1.93;;
12950;SDS011;6540;50.858;7.232;2023-05-10T13:50:46;1.80;;;1.70;;
12950;SDS011;6540;50.858;7.232;2023-05-10T13:53:12;1.90;;;1.80;;
12950;SDS011;6540;50.858;7.232;2023-05-10T13:55:37;1.77;;;1.67;;
12950;SDS011;6540;50.858;7.232;2023-05-10T13:58:03;1.70;;;1.60;;
12950;SDS011;6540;50.858;7.232;2023-05-10T14:00:28;4.30;;;1.83;;
12950;SDS011;6540;50.858;7.232;2023-05-10T14:02:54;1.50;;;1.40;;
12950;SDS011;6540;50.858;7.232;2023-05-10T14:05:19;2.43;;;2.03;;
12950;SDS011;6540;50.858;7.232;2023-05-10T14:07:45;2.13;;;1.87;;
12950;SDS011;6540;50.858;7.232;2023-05-10T14:10:11;2.47;;;1.47;;
12950;SDS011;6540;50.858;7.232;2023-05-10T14:12:36;3.17;;;1.40;;
12950;SDS011;6540;50.858;7.232;2023-05-10T14:15:01;1.57;;;1.47;;
12950;SDS011;6540;50.858;7.232;2023-05-10T14:17:28;3.53;;;1.70;;
12950;SDS011;6540;50.858;7.232;2023-05-10T14:19:54;1.57;;;1.33;;
12950;SDS011;6540;50.858;7.232;2023-05-10T14:22:19;2.07;;;1.80;;
12950;SDS011;6540;50.858;7.232;2023-05-10T14:24:44;1.73;;;1.63;;
12950;SDS011;6540;50.858;7.232;2023-05-10T14:27:12;3.37;;;1.90;;
12950;SDS011;6540;50.858;7.232;2023-05-10T14:29:37;2.10;;;1.83;;
12950;SDS011;6540;50.858;7.232;2023-05-10T14:32:03;3.27;;;2.13;;
12950;SDS011;6540;50.858;7.232;2023-05-10T14:34:28;2.20;;;2.00;;
12950;SDS011;6540;50.858;7.232;2023-05-10T14:36:53;2.87;;;2.03;;
12950;SDS011;6540;50.858;7.232;2023-05-10T14:39:20;2.83;;;1.90;;
12950;SDS011;6540;50.858;7.232;2023-05-10T14:41:45;2.07;;;1.87;;
12950;SDS011;6540;50.858;7.232;2023-05-10T14:44:12;2.07;;;1.87;;
12950;SDS011;6540;50.858;7.232;2023-05-10T14:46:38;3.40;;;2.50;;
12950;SDS011;6540;50.858;7.232;2023-05-10T14:49:04;2.53;;;2.00;;
12950;SDS011;6540;50.858;7.232;2023-05-10T14:51:29;2.47;;;2.00;;
12950;SDS011;6540;50.858;7.232;2023-05-10T14:53:55;2.03;;;1.90;;
12950;SDS011;6540;50.858;7.232;2023-05-10T14:56:21;2.40;;;2.20;;
12950;SDS011;6540;50.858;7.232;2023-05-10T14:58:47;2.40;;;2.20;;
12950;SDS011;6540;50.858;7.232;2023-05-10T15:01:12;2.33;;;2.13;;
12950;SDS011;6540;50.858;7.232;2023-05-10T15:03:37;2.30;;;2.10;;
12950;SDS011;6540;50.858;7.232;2023-05-10T15:06:03;2.97;;;2.23;;
12950;SDS011;6540;50.858;7.232;2023-05-10T15:08:29;2.53;;;2.33;;
12950;SDS011;6540;50.858;7.232;2023-05-10T15:10:54;2.40;;;2.20;;
12950;SDS011;6540;50.858;7.232;2023-05-10T15:13:21;2.67;;;2.27;;
12950;SDS011;6540;50.858;7.232;2023-05-10T15:15:46;2.50;;;2.30;;
12950;SDS011;6540;50.858;7.232;2023-05-10T15:18:12;2.80;;;2.03;;
12950;SDS011;6540;50.858;7.232;2023-05-10T15:20:40;2.53;;;2.00;;
12950;SDS011;6540;50.858;7.232;2023-05-10T15:23:05;1.87;;;1.77;;
12950;SDS011;6540;50.858;7.232;2023-05-10T15:25:31;3.63;;;1.80;;
12950;SDS011;6540;50.858;7.232;2023-05-10T15:27:59;1.70;;;1.60;;
12950;SDS011;6540;50.858;7.232;2023-05-10T15:30:24;2.00;;;1.80;;
12950;SDS011;6540;50.858;7.232;2023-05-10T15:32:49;4.23;;;2.40;;
12950;SDS011;6540;50.858;7.232;2023-05-10T15:35:15;2.73;;;2.53;;
12950;SDS011;6540;50.858;7.232;2023-05-10T15:37:41;2.90;;;2.30;;
12950;SDS011;6540;50.858;7.232;2023-05-10T15:40:07;2.57;;;2.33;;
12950;SDS011;6540;50.858;7.232;2023-05-10T15:42:32;2.87;;;2.60;;
12950;SDS011;6540;50.858;7.232;2023-05-10T15:44:58;2.80;;;2.30;;
12950;SDS011;6540;50.858;7.232;2023-05-10T15:47:24;1.97;;;1.70;;
12950;SDS011;6540;50.858;7.232;2023-05-10T15:49:50;1.80;;;1.70;;